Marten — 5BNU3 — position and weather

sailwx.info

Track history (hours):
 
Tides and Currents Weather Stations Pressure Air Temp Water Temp Dewpoint Dewpoint Depression Visibility Wind Speed Wind Dir Waves Ship Positions

Marten

Last reported at 2016-May-20 21:11 UTC. Time now 2016-May-24 21:25 UTC.
Position N 43°40' W 006°12'.

Length 90 m; draft 5.2 m.

Type: Ship. MMSI: 212376000.

Date/timePositionNaut miles runAvg speedWind from/ knotsBaromVisibWave heightAir tempDewpointWater temp
2016-May-20 21:11N 43°40' W 006°12'6 9.7
2016-May-20 20:32N 43°38' W 006°04'6 0.2
2016-May-19 14:31N 43°39' W 005°56'24010.4
2016-May-18 15:30N 46°55' W 002°39'8 8.8
2016-May-18 14:33N 47°01' W 002°30'9 9.2
2016-May-18 13:34N 47°08' W 002°21'10 9.6
2016-May-18 12:33N 47°16' W 002°12'1 1.2
2016-May-18 11:26N 47°17' W 002°12'0 0.0
2016-May-18 10:32N 47°17' W 002°12'0 0.0
2016-May-18 09:26N 47°17' W 002°12'0 0.0
2016-May-18 08:26N 47°17' W 002°12'0 0.0
2016-May-18 07:32N 47°17' W 002°12'0 0.0
2016-May-18 06:26N 47°17' W 002°12'0 0.0
2016-May-18 05:20N 47°17' W 002°12'0 0.0
2016-May-18 04:32N 47°17' W 002°12'0 0.0
2016-May-17 23:32N 47°17' W 002°12'0 0.0
2016-May-17 22:32N 47°17' W 002°12'0 0.0
2016-May-17 07:26N 47°17' W 002°12'0 0.0
2016-May-17 06:32N 47°17' W 002°12'0 0.0
2016-May-17 05:26N 47°17' W 002°12'0 0.0
2016-May-17 04:32N 47°17' W 002°12'0 0.0
2016-May-17 03:29N 47°17' W 002°12'0 0.0
2016-May-17 02:11N 47°17' W 002°12'0 0.0
2016-May-17 00:17N 47°17' W 002°12'0 0.0
2016-May-16 18:32N 47°17' W 002°12'0 0.0
2016-May-16 10:29N 47°17' W 002°12'0 0.0
2016-May-16 07:23N 47°17' W 002°12'0 0.0
2016-May-16 06:32N 47°17' W 002°12'0 0.0
2016-May-16 05:32N 47°17' W 002°12'0 0.0
2016-May-16 04:32N 47°17' W 002°12'0 0.0
2016-May-16 03:26N 47°17' W 002°12'0 0.0
2016-May-16 00:20N 47°17' W 002°12'0 0.0
2016-May-15 23:32N 47°17' W 002°12'0 0.0
2016-May-15 22:32N 47°17' W 002°12'0 0.0
2016-May-15 08:32N 47°17' W 002°12'0 0.0
2016-May-15 07:26N 47°17' W 002°12'0 0.0
2016-May-15 06:29N 47°17' W 002°12'0 0.0
2016-May-15 05:26N 47°17' W 002°12'0 0.0
2016-May-15 04:32N 47°17' W 002°12'0 0.0
2016-May-15 03:32N 47°17' W 002°12'0 0.0
2016-May-15 02:32N 47°17' W 002°12'0 0.0
2016-May-15 01:26N 47°17' W 002°12'0 0.0
2016-May-15 00:32N 47°17' W 002°12'0 0.0
2016-May-14 23:29N 47°17' W 002°12'0 0.0
2016-May-14 09:29N 47°17' W 002°12'0 0.0
2016-May-14 08:05N 47°17' W 002°12'0 0.0
2016-May-14 07:29N 47°17' W 002°12'0 0.0
2016-May-14 06:17N 47°17' W 002°12'0 0.0
2016-May-14 05:29N 47°17' W 002°12'0 0.0
2016-May-14 04:29N 47°17' W 002°12'0 0.0
2016-May-14 03:23N 47°17' W 002°12'0 0.0
2016-May-14 02:32N 47°17' W 002°12'0 0.0
2016-May-14 01:31N 47°17' W 002°12'0 0.0
2016-May-14 00:22N 47°17' W 002°12'0 0.0
2016-May-13 23:28N 47°17' W 002°12'0 0.0
2016-May-13 14:07N 47°17' W 002°12'0 0.0
2016-May-13 10:07N 47°17' W 002°12'0 0.0
2016-May-13 06:25N 47°17' W 002°12'0 0.0
2016-May-13 04:25N 47°17' W 002°12'0 0.0
2016-May-13 03:31N 47°17' W 002°12'0 0.0
2016-May-13 02:25N 47°17' W 002°12'0 0.0
2016-May-13 01:31N 47°17' W 002°12'0 0.0
2016-May-13 00:31N 47°17' W 002°12'0 0.0
2016-May-12 23:29N 47°17' W 002°12'0 0.0
2016-May-12 22:25N 47°17' W 002°12'0 0.0
2016-May-12 19:31N 47°17' W 002°12'0 0.0
2016-May-12 18:22N 47°17' W 002°12'0 0.0
2016-May-12 17:19N 47°17' W 002°12'0 0.0
2016-May-12 16:04N 47°17' W 002°12'0 0.0
2016-May-12 15:25N 47°17' W 002°12'0 0.0
2016-May-12 14:31N 47°17' W 002°12'0 0.0
2016-May-12 13:31N 47°17' W 002°12'0 0.0
2016-May-12 12:13N 47°17' W 002°12'0 0.0
2016-May-12 11:31N 47°17' W 002°12'0 0.0
2016-May-12 10:28N 47°17' W 002°12'0 0.0
2016-May-12 09:28N 47°17' W 002°12'0 0.0
2016-May-12 08:31N 47°17' W 002°12'0 0.0
2016-May-12 07:31N 47°17' W 002°12'0 0.0
2016-May-12 06:19N 47°17' W 002°12'0 0.0
2016-May-12 05:31N 47°17' W 002°12'0 0.0
2016-May-12 04:22N 47°17' W 002°12'0 0.0
2016-May-12 03:28N 47°17' W 002°12'0 0.0
2016-May-12 02:31N 47°17' W 002°12'0 0.0
2016-May-12 01:31N 47°17' W 002°12'0 0.0
2016-May-12 00:31N 47°17' W 002°12'0 0.0
2016-May-11 23:31N 47°17' W 002°12'0 0.0
2016-May-11 22:31N 47°17' W 002°12'0 0.0
2016-May-11 21:31N 47°17' W 002°12'0 0.0
2016-May-11 20:31N 47°17' W 002°12'0 0.0
2016-May-11 19:31N 47°17' W 002°12'0 0.0
2016-May-11 18:33N 47°17' W 002°12'1 1.1
2016-May-11 17:34N 47°16' W 002°12'10 9.8
2016-May-11 16:33N 47°08' W 002°21'1010.3
2016-May-11 15:33N 47°02' W 002°33'1211.4
2016-May-11 14:31N 46°53' W 002°45'  
Track history (hours):
 
Tides and Currents Weather Stations Pressure Air Temp Water Temp Dewpoint Dewpoint Depression Visibility Wind Speed Wind Dir Waves Ship Positions

Marten

Last reported at 2016-May-20 21:11 UTC. Time now 2016-May-24 21:25 UTC.
Position N 43°40' W 006°12'.

Length 90 m; draft 5.2 m.

Type: Ship. MMSI: 212376000.

Date/timePositionNaut miles runAvg speedWind from/ knotsBaromVisibWave heightAir tempDewpointWater temp
2016-May-20 21:11N 43°40' W 006°12'6 9.7
2016-May-20 20:32N 43°38' W 006°04'6 0.2
2016-May-19 14:31N 43°39' W 005°56'24010.4
2016-May-18 15:30N 46°55' W 002°39'8 8.8
2016-May-18 14:33N 47°01' W 002°30'9 9.2
2016-May-18 13:34N 47°08' W 002°21'10 9.6
2016-May-18 12:33N 47°16' W 002°12'1 1.2
2016-May-18 11:26N 47°17' W 002°12'0 0.0
2016-May-18 10:32N 47°17' W 002°12'0 0.0
2016-May-18 09:26N 47°17' W 002°12'0 0.0
2016-May-18 08:26N 47°17' W 002°12'0 0.0
2016-May-18 07:32N 47°17' W 002°12'0 0.0
2016-May-18 06:26N 47°17' W 002°12'0 0.0
2016-May-18 05:20N 47°17' W 002°12'0 0.0
2016-May-18 04:32N 47°17' W 002°12'0 0.0
2016-May-17 23:32N 47°17' W 002°12'0 0.0
2016-May-17 22:32N 47°17' W 002°12'0 0.0
2016-May-17 07:26N 47°17' W 002°12'0 0.0
2016-May-17 06:32N 47°17' W 002°12'0 0.0
2016-May-17 05:26N 47°17' W 002°12'0 0.0
2016-May-17 04:32N 47°17' W 002°12'0 0.0
2016-May-17 03:29N 47°17' W 002°12'0 0.0
2016-May-17 02:11N 47°17' W 002°12'0 0.0
2016-May-17 00:17N 47°17' W 002°12'0 0.0
2016-May-16 18:32N 47°17' W 002°12'0 0.0
2016-May-16 10:29N 47°17' W 002°12'0 0.0
2016-May-16 07:23N 47°17' W 002°12'0 0.0
2016-May-16 06:32N 47°17' W 002°12'0 0.0
2016-May-16 05:32N 47°17' W 002°12'0 0.0
2016-May-16 04:32N 47°17' W 002°12'0 0.0
2016-May-16 03:26N 47°17' W 002°12'0 0.0
2016-May-16 00:20N 47°17' W 002°12'0 0.0
2016-May-15 23:32N 47°17' W 002°12'0 0.0
2016-May-15 22:32N 47°17' W 002°12'0 0.0
2016-May-15 08:32N 47°17' W 002°12'0 0.0
2016-May-15 07:26N 47°17' W 002°12'0 0.0
2016-May-15 06:29N 47°17' W 002°12'0 0.0
2016-May-15 05:26N 47°17' W 002°12'0 0.0
2016-May-15 04:32N 47°17' W 002°12'0 0.0
2016-May-15 03:32N 47°17' W 002°12'0 0.0
2016-May-15 02:32N 47°17' W 002°12'0 0.0
2016-May-15 01:26N 47°17' W 002°12'0 0.0
2016-May-15 00:32N 47°17' W 002°12'0 0.0
2016-May-14 23:29N 47°17' W 002°12'0 0.0
2016-May-14 09:29N 47°17' W 002°12'0 0.0
2016-May-14 08:05N 47°17' W 002°12'0 0.0
2016-May-14 07:29N 47°17' W 002°12'0 0.0
2016-May-14 06:17N 47°17' W 002°12'0 0.0
2016-May-14 05:29N 47°17' W 002°12'0 0.0
2016-May-14 04:29N 47°17' W 002°12'0 0.0
2016-May-14 03:23N 47°17' W 002°12'0 0.0
2016-May-14 02:32N 47°17' W 002°12'0 0.0
2016-May-14 01:31N 47°17' W 002°12'0 0.0
2016-May-14 00:22N 47°17' W 002°12'0 0.0
2016-May-13 23:28N 47°17' W 002°12'0 0.0
2016-May-13 14:07N 47°17' W 002°12'0 0.0
2016-May-13 10:07N 47°17' W 002°12'0 0.0
2016-May-13 06:25N 47°17' W 002°12'0 0.0
2016-May-13 04:25N 47°17' W 002°12'0 0.0
2016-May-13 03:31N 47°17' W 002°12'0 0.0
2016-May-13 02:25N 47°17' W 002°12'0 0.0
2016-May-13 01:31N 47°17' W 002°12'0 0.0
2016-May-13 00:31N 47°17' W 002°12'0 0.0
2016-May-12 23:29N 47°17' W 002°12'0 0.0
2016-May-12 22:25N 47°17' W 002°12'0 0.0
2016-May-12 19:31N 47°17' W 002°12'0 0.0
2016-May-12 18:22N 47°17' W 002°12'0 0.0
2016-May-12 17:19N 47°17' W 002°12'0 0.0
2016-May-12 16:04N 47°17' W 002°12'0 0.0
2016-May-12 15:25N 47°17' W 002°12'0 0.0
2016-May-12 14:31N 47°17' W 002°12'0 0.0
2016-May-12 13:31N 47°17' W 002°12'0 0.0
2016-May-12 12:13N 47°17' W 002°12'0 0.0
2016-May-12 11:31N 47°17' W 002°12'0 0.0
2016-May-12 10:28N 47°17' W 002°12'0 0.0
2016-May-12 09:28N 47°17' W 002°12'0 0.0
2016-May-12 08:31N 47°17' W 002°12'0 0.0
2016-May-12 07:31N 47°17' W 002°12'0 0.0
2016-May-12 06:19N 47°17' W 002°12'0 0.0
2016-May-12 05:31N 47°17' W 002°12'0 0.0
2016-May-12 04:22N 47°17' W 002°12'0 0.0
2016-May-12 03:28N 47°17' W 002°12'0 0.0
2016-May-12 02:31N 47°17' W 002°12'0 0.0
2016-May-12 01:31N 47°17' W 002°12'0 0.0
2016-May-12 00:31N 47°17' W 002°12'0 0.0
2016-May-11 23:31N 47°17' W 002°12'0 0.0
2016-May-11 22:31N 47°17' W 002°12'0 0.0
2016-May-11 21:31N 47°17' W 002°12'0 0.0
2016-May-11 20:31N 47°17' W 002°12'0 0.0
2016-May-11 19:31N 47°17' W 002°12'0 0.0
2016-May-11 18:33N 47°17' W 002°12'1 1.1
2016-May-11 17:34N 47°16' W 002°12'10 9.8
2016-May-11 16:33N 47°08' W 002°21'1010.3
2016-May-11 15:33N 47°02' W 002°33'1211.4
2016-May-11 14:31N 46°53' W 002°45'  

Dump ship's entire track history